createdAt,value
2022-12-22T00:04:50.636Z,72.7
2022-12-22T00:10:25.593Z,73.1
2022-12-22T00:16:00.640Z,73
2022-12-22T00:21:36.262Z,73
2022-12-22T00:27:11.393Z,73
2022-12-22T00:32:47.405Z,73.2
2022-12-22T00:38:24.379Z,73.6
2022-12-22T00:44:00.571Z,73.9
2022-12-22T00:49:57.687Z,73.8
2022-12-22T00:55:30.456Z,74.2
2022-12-22T01:01:05.839Z,74.2
2022-12-22T01:06:50.519Z,74.1
2022-12-22T01:12:34.482Z,74
2022-12-22T01:18:17.029Z,73.8
2022-12-22T01:23:55.664Z,74
2022-12-22T01:29:44.954Z,74
2022-12-22T01:35:24.699Z,74
2022-12-22T01:41:00.180Z,74.5
2022-12-22T01:46:56.768Z,75.2
2022-12-22T01:52:29.732Z,75.1
2022-12-22T01:58:07.691Z,74.7
2022-12-22T02:04:01.564Z,74.8
2022-12-22T02:09:37.156Z,75.1
2022-12-22T02:15:13.441Z,75.6
2022-12-22T02:20:48.871Z,75.7
2022-12-22T02:26:24.568Z,75.4
2022-12-22T02:32:18.202Z,75.4
2022-12-22T02:37:53.715Z,75.8
2022-12-22T02:43:32.742Z,75.8
2022-12-22T02:49:29.700Z,75.8
2022-12-22T02:55:03.656Z,75.6
2022-12-22T03:00:40.058Z,75.5
2022-12-22T03:06:17.805Z,75.9
2022-12-22T03:12:35.169Z,75.9
2022-12-22T03:18:10.319Z,75.7
2022-12-22T03:23:45.443Z,75.7
2022-12-22T03:29:20.699Z,76
2022-12-22T03:34:58.502Z,76.1
2022-12-22T03:40:33.598Z,76.4
2022-12-22T03:46:49.311Z,76.8
2022-12-22T03:52:23.243Z,76.6
2022-12-22T03:57:59.354Z,76.2
2022-12-22T04:03:44.324Z,76.1
2022-12-22T04:09:20.380Z,76
2022-12-22T04:14:55.686Z,75.6
2022-12-22T04:20:30.957Z,75.4
2022-12-22T04:26:06.380Z,75.8
2022-12-22T04:31:41.401Z,75.8
2022-12-22T04:37:18.659Z,76.5
2022-12-22T04:42:55.021Z,76.7
2022-12-22T04:49:00.860Z,76.6
2022-12-22T04:54:34.027Z,76.9
2022-12-22T05:00:09.548Z,77
2022-12-22T05:05:46.005Z,77.1
2022-12-22T05:11:21.367Z,77.1
2022-12-22T05:16:56.851Z,77.2
2022-12-22T05:22:41.213Z,76.6
2022-12-22T05:28:28.808Z,76.4
2022-12-22T05:34:04.515Z,76.2
2022-12-22T05:39:40.597Z,76.6
2022-12-22T05:45:16.817Z,76.8
2022-12-22T05:51:01.453Z,76.8
2022-12-22T05:56:36.472Z,76.8
2022-12-22T06:02:13.283Z,77.2
2022-12-22T06:07:50.263Z,77.5
2022-12-22T06:13:29.115Z,77.4
2022-12-22T06:19:05.593Z,77.5
2022-12-22T06:24:45.504Z,77.2
2022-12-22T06:30:20.486Z,77.2
2022-12-22T06:36:08.170Z,77.5
2022-12-22T06:41:43.627Z,77.3
2022-12-22T06:47:58.444Z,77.1
2022-12-22T06:53:31.451Z,77.1
2022-12-22T06:59:08.013Z,76.8
2022-12-22T07:04:42.941Z,76.7
2022-12-22T07:10:18.402Z,78
2022-12-22T07:16:01.991Z,82.1
2022-12-22T07:21:39.437Z,84.3
2022-12-22T07:27:15.619Z,84
2022-12-22T07:32:59.989Z,83.2
2022-12-22T07:38:35.156Z,83.4
2022-12-22T07:44:10.412Z,83.8
2022-12-22T07:49:45.989Z,85
2022-12-22T07:55:21.276Z,84.7
2022-12-22T08:00:56.309Z,86.1
2022-12-22T08:06:34.623Z,83.7
2022-12-22T08:12:10.441Z,83.5
2022-12-22T08:17:47.365Z,83.5
2022-12-22T08:24:07.107Z,83.8
2022-12-22T08:29:43.443Z,83
2022-12-22T08:35:22.670Z,83.6
2022-12-22T08:41:04.563Z,82.1
2022-12-22T08:47:17.491Z,81.6
2022-12-22T08:52:51.280Z,82.2
2022-12-22T08:58:27.003Z,83
2022-12-22T09:04:05.398Z,80.8
2022-12-22T09:09:43.098Z,83.4
2022-12-22T09:15:59.024Z,77.5
2022-12-22T09:22:34.089Z,78.1
2022-12-22T09:28:15.275Z,80.5
2022-12-22T09:33:53.836Z,81
2022-12-22T09:39:30.004Z,78.3
2022-12-22T09:45:12.463Z,76.4
2022-12-22T09:50:53.820Z,76.2
2022-12-22T09:56:39.449Z,78.3
2022-12-22T10:02:15.941Z,77.2
2022-12-22T10:08:01.132Z,77.8
2022-12-22T10:13:40.671Z,75.6
2022-12-22T10:19:43.419Z,74.8
2022-12-22T10:25:19.181Z,76.9
2022-12-22T10:32:04.781Z,77
2022-12-22T10:38:29.220Z,75.2
2022-12-22T10:44:09.684Z,75.8
2022-12-22T10:50:06.680Z,58.6
2022-12-22T10:55:46.431Z,58.2
2022-12-22T11:01:58.232Z,54.3
2022-12-22T11:07:35.539Z,54.6
2022-12-22T11:13:10.910Z,59.4
2022-12-22T11:18:49.405Z,57
2022-12-22T11:24:27.608Z,51.8
2022-12-22T11:30:03.168Z,52.4
2022-12-22T11:35:39.113Z,52
2022-12-22T11:41:30.698Z,48.3
2022-12-22T11:47:27.978Z,49.5
2022-12-22T11:53:00.941Z,49
2022-12-22T11:58:59.285Z,53
2022-12-22T12:05:37.355Z,51.5
2022-12-22T12:11:13.370Z,48.5
2022-12-22T12:16:49.095Z,50
2022-12-22T12:22:33.190Z,51.6
2022-12-22T12:28:21.213Z,48.3
2022-12-22T12:34:04.587Z,48.1
2022-12-22T12:39:39.805Z,48.5
2022-12-22T12:45:17.633Z,51.6
2022-12-22T12:50:56.768Z,50.9
2022-12-22T12:56:32.259Z,44.8
2022-12-22T13:02:12.801Z,51.5
2022-12-22T13:08:11.780Z,52.4
2022-12-22T13:14:13.061Z,54.2
2022-12-22T13:20:01.126Z,51.4
2022-12-22T13:25:57.950Z,50.6
2022-12-22T13:31:36.698Z,49
2022-12-22T13:37:13.989Z,54.1
2022-12-22T13:42:50.108Z,57.4
2022-12-22T13:48:47.606Z,54.3
2022-12-22T13:54:20.707Z,58.3
2022-12-22T14:00:01.979Z,57.2
2022-12-22T14:05:38.212Z,63
2022-12-22T14:11:22.321Z,65.3
2022-12-22T14:17:31.232Z,62.4
2022-12-22T14:23:29.301Z,54.7
2022-12-22T14:29:39.706Z,57.6
2022-12-22T14:35:26.383Z,56.1
2022-12-22T14:42:44.708Z,59.8
2022-12-22T14:48:41.508Z,59.7
2022-12-22T14:54:14.210Z,60.3
2022-12-22T14:59:49.605Z,61.2
2022-12-22T15:05:25.148Z,58.2
2022-12-22T15:11:00.182Z,57.9
2022-12-22T15:16:39.232Z,58.9
2022-12-22T15:22:16.793Z,57.8
2022-12-22T15:27:53.884Z,60
2022-12-22T15:33:39.607Z,60
2022-12-22T15:39:15.101Z,61.4
2022-12-22T15:45:01.701Z,61
2022-12-22T15:50:59.947Z,59.9
2022-12-22T15:56:42.971Z,60.9
2022-12-22T16:03:17.286Z,64.3
2022-12-22T16:09:08.735Z,63.4
2022-12-22T16:14:51.094Z,62.2
2022-12-22T16:20:43.545Z,63.2
2022-12-22T16:26:18.588Z,63.4
2022-12-22T16:31:55.710Z,64
2022-12-22T16:37:31.486Z,64.1
2022-12-22T16:50:19.145Z,65.2
2022-12-22T16:56:04.476Z,64
2022-12-22T17:02:47.055Z,64.6
2022-12-22T17:08:50.350Z,64.4
2022-12-22T17:14:47.933Z,67.9
2022-12-22T17:20:35.801Z,66.6
2022-12-22T17:26:10.448Z,68.6
2022-12-22T17:31:57.124Z,70.5
2022-12-22T17:37:42.560Z,68.8
2022-12-22T17:43:20.533Z,67.6
2022-12-22T17:49:17.706Z,66.3
2022-12-22T17:54:51.140Z,67.9
2022-12-22T18:00:39.134Z,67.8
2022-12-22T18:06:20.129Z,69.1
2022-12-22T18:11:57.485Z,71
2022-12-22T18:17:58.906Z,71.3
2022-12-22T18:23:50.514Z,70.8
2022-12-22T18:29:47.717Z,71.6
2022-12-22T18:35:30.151Z,71.8
2022-12-22T18:41:24.506Z,72.2
2022-12-22T18:47:47.460Z,73.1
2022-12-22T18:53:20.629Z,73.2
2022-12-22T18:58:59.971Z,71.4
2022-12-22T19:04:35.197Z,71
2022-12-22T19:10:21.150Z,70.9
2022-12-22T19:15:58.794Z,70.7
2022-12-22T19:21:35.902Z,71.1
2022-12-22T19:27:11.158Z,71.2
2022-12-22T19:32:50.448Z,71.5
2022-12-22T19:38:26.884Z,71.5
2022-12-22T19:44:28.021Z,71.5
2022-12-22T19:50:03.493Z,71.4
2022-12-22T19:55:38.607Z,71.3
2022-12-22T20:01:15.941Z,71.1
2022-12-22T20:07:12.234Z,70.9
2022-12-22T20:12:49.909Z,71.7
2022-12-22T20:18:42.370Z,71.7
2022-12-22T20:24:19.926Z,71.8
2022-12-22T20:30:04.027Z,71.6
2022-12-22T20:35:42.659Z,71.6
2022-12-22T20:41:40.133Z,71.5
2022-12-22T20:47:27.732Z,71.9
2022-12-22T20:53:02.712Z,72.1
2022-12-22T20:58:46.165Z,72.2
2022-12-22T21:04:21.592Z,72.2
2022-12-22T21:09:57.982Z,72.3
2022-12-22T21:15:48.777Z,72.4
2022-12-22T21:21:27.876Z,72.4
2022-12-22T21:27:10.688Z,72.5
2022-12-22T21:32:46.069Z,72.6
2022-12-22T21:38:27.323Z,72.6
2022-12-22T21:44:06.651Z,72.6
2022-12-22T21:49:46.140Z,72.6
2022-12-22T21:55:38.163Z,72.9
2022-12-22T22:01:13.795Z,73.3
2022-12-22T22:06:50.472Z,73.6
2022-12-22T22:12:28.726Z,73.5
2022-12-22T22:18:34.450Z,73.1
2022-12-22T22:25:02.991Z,73.3
2022-12-22T22:30:42.328Z,73.6
2022-12-22T22:37:06.339Z,73.9
2022-12-22T22:43:11.618Z,74.2
2022-12-22T22:49:13.950Z,74.2
2022-12-22T22:54:47.515Z,74.1
2022-12-22T23:00:23.009Z,73.9
2022-12-22T23:06:11.699Z,73.7
2022-12-22T23:11:50.519Z,74
2022-12-22T23:17:29.997Z,74.4
2022-12-22T23:23:07.606Z,74.5
2022-12-22T23:28:43.032Z,74.8
2022-12-22T23:34:48.672Z,74.8
2022-12-22T23:40:53.849Z,75
2022-12-22T23:46:52.631Z,74.9
2022-12-22T23:52:28.061Z,75.3
2022-12-22T23:58:04.581Z,75.5
